Time;durP1;ratioP1;P1;durP2;ratioP2;P2;SDS_P1;SDS_P2;PMS_P1;PMS_P2;Temp;Humidity;BMP_temperature;BMP_pressure;BME280_temperature;BME280_humidity;BME280_pressure;Samples;Min_cycle;Max_cycle;Signal;HPM_P1;HPM_P2
2021/08/19 00:02:18;;;;;;;;;;;16.80;92.80;;;;;;5044046;28;20003;-72
2021/08/19 00:04:43;;;;;;;;;;;16.80;92.80;;;;;;5050478;28;20312;-72
2021/08/19 00:07:09;;;;;;;;;;;16.80;92.60;;;;;;5044107;28;19909;-72
2021/08/19 00:09:36;;;;;;;;;;;16.80;92.70;;;;;;5043644;28;19909;-72
2021/08/19 00:12:02;;;;;;;;;;;16.80;92.60;;;;;;5043832;28;19919;-72
2021/08/19 00:14:27;;;;;;;;;;;16.90;92.60;;;;;;5043736;28;19991;-72
2021/08/19 00:16:52;;;;;;;;;;;16.80;92.50;;;;;;5043805;28;19909;-68
2021/08/19 00:19:18;;;;;;;;;;;16.90;92.50;;;;;;5044207;28;19919;-68
2021/08/19 00:21:44;;;;;;;;;;;16.90;92.50;;;;;;5059028;28;19909;-68
2021/08/19 00:24:09;;;;;;;;;;;16.90;92.50;;;;;;5043596;28;19948;-68
2021/08/19 00:26:35;;;;;;;;;;;16.90;92.40;;;;;;5043421;28;20434;-68
2021/08/19 00:29:00;;;;;;;;;;;16.90;92.50;;;;;;5043807;28;20281;-68
2021/08/19 00:31:26;;;;;;;;;;;16.90;92.50;;;;;;5043218;28;19913;-68
2021/08/19 00:33:51;;;;;;;;;;;16.80;92.40;;;;;;5043335;28;19929;-68
2021/08/19 00:36:17;;;;;;;;;;;16.80;92.40;;;;;;5043413;28;20375;-68
2021/08/19 00:38:43;;;;;;;;;;;16.90;92.50;;;;;;5043172;28;19917;-68
2021/08/19 00:41:08;;;;;;;;;;;16.80;92.40;;;;;;5050134;28;19995;-77
2021/08/19 00:43:34;;;;;;;;;;;16.90;92.40;;;;;;5043472;28;19919;-77
2021/08/19 00:46:00;;;;;;;;;;;16.80;92.40;;;;;;5043159;28;20421;-77
2021/08/19 00:48:26;;;;;;;;;;;16.90;92.40;;;;;;5043143;28;20402;-77
2021/08/19 00:50:51;;;;;;;;;;;16.90;92.40;;;;;;5042898;28;19952;-78
2021/08/19 00:53:20;;;;;;;;;;;16.80;92.30;;;;;;5043254;28;20280;-77
2021/08/19 00:55:47;;;;;;;;;;;16.90;92.40;;;;;;5042821;28;19916;-77
2021/08/19 00:58:14;;;;;;;;;;;16.90;92.40;;;;;;5043293;28;19966;-77
2021/08/19 01:00:41;;;;;;;;;;;16.90;92.30;;;;;;5042285;28;19913;-77
2021/08/19 01:03:07;;;;;;;;;;;16.80;92.30;;;;;;5042927;28;19921;-77
2021/08/19 01:05:36;;;;;;;;;;;16.90;92.20;;;;;;5042871;28;20276;-77
2021/08/19 01:08:02;;;;;;;;;;;16.90;92.20;;;;;;5042960;28;19913;-77
2021/08/19 01:10:28;;;;;;;;;;;16.90;92.10;;;;;;5042543;28;19916;-77
2021/08/19 01:12:54;;;;;;;;;;;16.90;92.10;;;;;;5043052;28;20346;-77
2021/08/19 01:15:19;;;;;;;;;;;16.90;92.00;;;;;;5042831;28;19909;-77
2021/08/19 01:18:01;;;;;;;;;;;16.90;91.90;;;;;;5042559;28;20015;-77
2021/08/19 01:20:27;;;;;;;;;;;16.90;91.90;;;;;;5042451;28;19920;-77
2021/08/19 01:22:53;;;;;;;;;;;16.80;91.90;;;;;;5042540;28;19954;-77
2021/08/19 01:25:18;;;;;;;;;;;16.80;91.80;;;;;;5042839;28;19913;-77
2021/08/19 01:27:44;;;;;;;;;;;16.80;91.80;;;;;;5042325;28;19912;-77
2021/08/19 01:30:09;;;;;;;;;;;16.80;91.80;;;;;;5042507;28;20022;-77
2021/08/19 01:32:34;;;;;;;;;;;16.80;91.80;;;;;;5041935;28;19924;-77
2021/08/19 01:35:00;;;;;;;;;;;16.80;91.80;;;;;;5042521;28;20439;-77
2021/08/19 01:37:25;;;;;;;;;;;16.80;91.80;;;;;;5042050;28;19967;-77
2021/08/19 01:39:51;;;;;;;;;;;16.80;91.80;;;;;;5042202;28;19956;-77
2021/08/19 01:42:16;;;;;;;;;;;16.80;91.70;;;;;;5040849;28;19913;-77
2021/08/19 01:44:42;;;;;;;;;;;16.80;91.70;;;;;;5041942;28;19920;-77
2021/08/19 01:47:09;;;;;;;;;;;16.80;91.70;;;;;;5040846;28;19914;-77
2021/08/19 01:49:35;;;;;;;;;;;16.80;91.70;;;;;;5041847;28;19992;-77
2021/08/19 01:52:01;;;;;;;;;;;16.80;91.70;;;;;;5041890;28;19909;-77
2021/08/19 01:54:27;;;;;;;;;;;16.80;91.70;;;;;;5042126;28;19924;-77
2021/08/19 01:56:52;;;;;;;;;;;16.80;91.70;;;;;;5041727;28;19965;-77
2021/08/19 01:59:18;;;;;;;;;;;16.80;91.70;;;;;;5042450;28;20011;-77
2021/08/19 02:01:43;;;;;;;;;;;16.80;91.80;;;;;;5041640;28;19909;-72
2021/08/19 02:04:09;;;;;;;;;;;16.80;91.80;;;;;;5042255;28;19917;-72
2021/08/19 02:06:34;;;;;;;;;;;16.80;91.80;;;;;;5041540;28;20276;-72
2021/08/19 02:09:00;;;;;;;;;;;16.80;91.90;;;;;;5041631;28;20399;-72
2021/08/19 02:11:25;;;;;;;;;;;16.80;91.90;;;;;;5040939;28;19914;-72
2021/08/19 02:13:51;;;;;;;;;;;16.80;91.90;;;;;;5041483;28;19978;-72
2021/08/19 02:16:16;;;;;;;;;;;16.80;92.00;;;;;;5041741;28;20363;-72
2021/08/19 02:18:42;;;;;;;;;;;16.80;92.00;;;;;;5041135;28;19952;-72
2021/08/19 02:21:07;;;;;;;;;;;16.70;92.00;;;;;;5041556;28;19909;-72
2021/08/19 02:23:33;;;;;;;;;;;16.70;92.10;;;;;;5041010;28;19909;-72
2021/08/19 02:25:58;;;;;;;;;;;16.80;92.10;;;;;;5041414;28;19920;-72
2021/08/19 02:28:24;;;;;;;;;;;16.80;92.30;;;;;;5041284;28;19978;-72
2021/08/19 02:30:49;;;;;;;;;;;16.70;92.20;;;;;;5041517;28;19912;-72
2021/08/19 02:33:14;;;;;;;;;;;16.80;92.40;;;;;;5041019;28;20364;-72
2021/08/19 02:35:40;;;;;;;;;;;16.70;92.40;;;;;;5047603;28;19940;-72
2021/08/19 02:38:06;;;;;;;;;;;16.70;92.40;;;;;;5041014;28;19921;-72
2021/08/19 02:40:33;;;;;;;;;;;16.70;92.50;;;;;;5040966;28;20403;-72
2021/08/19 02:42:58;;;;;;;;;;;16.80;92.50;;;;;;5041353;28;19909;-72
2021/08/19 02:45:23;;;;;;;;;;;16.70;92.50;;;;;;5039562;28;19963;-72
2021/08/19 02:47:49;;;;;;;;;;;16.70;92.60;;;;;;5040884;28;19913;-69
2021/08/19 02:50:14;;;;;;;;;;;16.70;92.70;;;;;;5039829;28;19967;-69
2021/08/19 02:52:40;;;;;;;;;;;16.60;92.80;;;;;;5039279;28;19913;-69
2021/08/19 02:55:06;;;;;;;;;;;16.60;92.90;;;;;;5055722;28;19996;-69
2021/08/19 02:57:32;;;;;;;;;;;16.60;93.00;;;;;;5056228;28;19960;-69
2021/08/19 02:59:57;;;;;;;;;;;16.50;92.90;;;;;;5055925;28;20362;-68
2021/08/19 03:02:23;;;;;;;;;;;16.50;93.10;;;;;;5040448;28;20297;-68
2021/08/19 03:04:48;;;;;;;;;;;16.50;93.10;;;;;;5040639;28;19917;-68
2021/08/19 03:07:14;;;;;;;;;;;16.50;93.20;;;;;;5040898;28;19948;-69
2021/08/19 03:09:40;;;;;;;;;;;16.50;93.20;;;;;;5040458;28;19944;-69
2021/08/19 03:12:07;;;;;;;;;;;16.50;93.40;;;;;;5055952;28;20363;-68
2021/08/19 03:14:33;;;;;;;;;;;16.50;93.20;;;;;;5040295;28;19909;-68
2021/08/19 03:16:59;;;;;;;;;;;16.40;93.20;;;;;;5039196;28;20307;-69
2021/08/19 03:19:24;;;;;;;;;;;16.40;93.30;;;;;;5047309;28;19909;-69
2021/08/19 03:21:50;;;;;;;;;;;16.40;93.30;;;;;;5040489;28;19909;-69
2021/08/19 03:24:15;;;;;;;;;;;16.40;93.30;;;;;;5040309;28;19924;-69
2021/08/19 03:26:41;;;;;;;;;;;16.40;93.30;;;;;;5040378;28;19936;-69
2021/08/19 03:29:07;;;;;;;;;;;16.50;93.30;;;;;;5038860;28;19998;-68
2021/08/19 03:31:32;;;;;;;;;;;16.50;93.40;;;;;;5038954;28;19959;-68
2021/08/19 03:33:57;;;;;;;;;;;16.50;93.40;;;;;;5040308;28;19917;-68
2021/08/19 03:36:25;;;;;;;;;;;16.50;93.40;;;;;;5039167;28;19920;-69
2021/08/19 03:38:50;;;;;;;;;;;16.50;93.40;;;;;;5040299;28;19921;-69
2021/08/19 03:41:16;;;;;;;;;;;16.50;93.30;;;;;;5040524;28;19920;-69
2021/08/19 03:43:41;;;;;;;;;;;16.50;93.40;;;;;;5040055;28;19936;-69
2021/08/19 03:46:07;;;;;;;;;;;16.50;93.40;;;;;;5040190;28;20003;-69
2021/08/19 03:48:32;;;;;;;;;;;16.50;93.40;;;;;;5039920;28;20372;-68
2021/08/19 03:50:59;;;;;;;;;;;16.50;93.40;;;;;;5040303;28;19916;-69
2021/08/19 03:53:24;;;;;;;;;;;16.50;93.30;;;;;;5039885;28;19952;-69
2021/08/19 03:55:50;;;;;;;;;;;16.60;93.40;;;;;;5047047;28;20425;-69
2021/08/19 03:58:15;;;;;;;;;;;16.50;93.30;;;;;;5040259;28;20031;-68
2021/08/19 04:00:41;;;;;;;;;;;16.50;93.30;;;;;;5039893;28;19917;-69
2021/08/19 04:03:06;;;;;;;;;;;16.60;93.30;;;;;;5040168;28;19924;-69
2021/08/19 04:05:32;;;;;;;;;;;16.50;93.30;;;;;;5040101;28;19909;-68
2021/08/19 04:07:57;;;;;;;;;;;16.50;93.20;;;;;;5040086;28;19913;-68
2021/08/19 04:10:22;;;;;;;;;;;16.50;93.20;;;;;;5039990;28;19944;-68
2021/08/19 04:12:48;;;;;;;;;;;16.60;93.20;;;;;;5040302;28;20348;-77
2021/08/19 04:15:13;;;;;;;;;;;16.60;93.20;;;;;;5040122;28;19917;-77
2021/08/19 04:17:39;;;;;;;;;;;16.60;93.20;;;;;;5039919;28;19924;-77
2021/08/19 04:20:05;;;;;;;;;;;16.60;93.10;;;;;;5040172;28;20000;-77
2021/08/19 04:22:31;;;;;;;;;;;16.60;93.10;;;;;;5040031;28;19936;-77
2021/08/19 04:24:56;;;;;;;;;;;16.60;93.10;;;;;;5039916;28;19913;-77
2021/08/19 04:27:22;;;;;;;;;;;16.60;93.00;;;;;;5055940;28;19912;-77
2021/08/19 04:29:47;;;;;;;;;;;16.60;93.00;;;;;;5039717;28;19913;-77
2021/08/19 04:32:13;;;;;;;;;;;16.60;93.00;;;;;;5039798;28;19913;-77
2021/08/19 04:34:38;;;;;;;;;;;16.60;93.00;;;;;;5039872;28;19959;-77
2021/08/19 04:37:04;;;;;;;;;;;16.60;93.00;;;;;;5043659;28;20360;-77
2021/08/19 04:39:29;;;;;;;;;;;16.60;92.90;;;;;;5043164;28;19956;-77
2021/08/19 04:41:55;;;;;;;;;;;16.60;92.90;;;;;;5043552;28;19916;-77
2021/08/19 04:44:20;;;;;;;;;;;16.60;92.90;;;;;;5043018;28;19920;-77
2021/08/19 04:46:45;;;;;;;;;;;16.60;92.90;;;;;;5043260;28;19917;-77
2021/08/19 04:49:12;;;;;;;;;;;16.60;92.90;;;;;;5043168;28;19905;-77
2021/08/19 04:51:37;;;;;;;;;;;16.60;92.90;;;;;;5042814;28;19916;-77
2021/08/19 04:54:03;;;;;;;;;;;16.60;92.90;;;;;;5041994;28;20280;-77
2021/08/19 04:56:30;;;;;;;;;;;16.60;92.80;;;;;;5042812;28;19908;-77
2021/08/19 04:58:57;;;;;;;;;;;16.60;92.80;;;;;;5043211;28;19920;-77
2021/08/19 05:01:22;;;;;;;;;;;16.60;92.80;;;;;;5042712;28;20296;-78
2021/08/19 05:03:48;;;;;;;;;;;16.60;92.80;;;;;;5043087;28;19913;-78
2021/08/19 05:06:13;;;;;;;;;;;16.60;92.90;;;;;;5043181;28;20091;-78
2021/08/19 05:08:38;;;;;;;;;;;16.60;92.80;;;;;;5042583;28;19936;-78
2021/08/19 05:11:04;;;;;;;;;;;16.60;92.80;;;;;;5042918;28;19920;-78
2021/08/19 05:13:31;;;;;;;;;;;16.60;92.90;;;;;;5042676;28;20007;-72
2021/08/19 05:15:57;;;;;;;;;;;16.60;92.90;;;;;;5042647;28;19913;-72
2021/08/19 05:18:22;;;;;;;;;;;16.60;92.80;;;;;;5042835;28;19920;-72
2021/08/19 05:20:47;;;;;;;;;;;16.60;92.80;;;;;;5042505;28;20332;-72
2021/08/19 05:23:13;;;;;;;;;;;16.60;92.80;;;;;;5042472;28;19916;-70
2021/08/19 05:25:38;;;;;;;;;;;16.60;92.80;;;;;;5041025;28;19962;-78
2021/08/19 05:28:04;;;;;;;;;;;16.60;92.80;;;;;;5042846;28;19999;-79
2021/08/19 05:30:29;;;;;;;;;;;16.60;92.80;;;;;;5042080;28;19964;-69
2021/08/19 05:32:55;;;;;;;;;;;16.70;92.80;;;;;;5057742;28;20334;-70
2021/08/19 05:35:20;;;;;;;;;;;16.70;92.80;;;;;;5042254;28;19913;-72
2021/08/19 05:37:46;;;;;;;;;;;16.70;92.80;;;;;;5042236;28;19921;-72
2021/08/19 05:40:11;;;;;;;;;;;16.70;92.80;;;;;;5057619;28;20474;-72
2021/08/19 05:42:37;;;;;;;;;;;16.70;92.80;;;;;;5042007;28;20452;-72
2021/08/19 05:45:02;;;;;;;;;;;16.70;92.80;;;;;;5040717;28;19909;-72
2021/08/19 05:47:28;;;;;;;;;;;16.70;92.80;;;;;;5040701;28;19963;-72
2021/08/19 05:49:53;;;;;;;;;;;16.70;92.80;;;;;;5042921;28;19975;-72
2021/08/19 05:52:18;;;;;;;;;;;16.70;92.70;;;;;;5041929;28;19967;-72
2021/08/19 05:54:44;;;;;;;;;;;16.80;92.70;;;;;;5040484;28;19909;-72
2021/08/19 05:57:09;;;;;;;;;;;16.70;92.80;;;;;;5041785;28;20268;-72
2021/08/19 05:59:35;;;;;;;;;;;16.80;92.90;;;;;;5039761;28;20330;-69
2021/08/19 06:02:00;;;;;;;;;;;16.80;92.80;;;;;;5040390;28;19920;-70
2021/08/19 06:04:26;;;;;;;;;;;16.80;92.80;;;;;;5041869;28;19917;-70
2021/08/19 06:06:51;;;;;;;;;;;16.90;92.80;;;;;;5041965;28;20051;-70
2021/08/19 06:09:17;;;;;;;;;;;16.90;92.80;;;;;;5040111;28;20287;-70
2021/08/19 06:11:42;;;;;;;;;;;16.90;92.80;;;;;;5041350;28;19913;-69
2021/08/19 06:14:08;;;;;;;;;;;17.00;92.80;;;;;;5039946;28;19971;-69
2021/08/19 06:16:33;;;;;;;;;;;17.00;92.80;;;;;;5056600;28;19916;-69
2021/08/19 06:19:00;;;;;;;;;;;17.00;92.80;;;;;;5041387;28;19980;-78
2021/08/19 06:21:26;;;;;;;;;;;17.10;92.80;;;;;;5041183;28;19909;-78
2021/08/19 06:23:51;;;;;;;;;;;17.20;92.80;;;;;;5041489;28;20046;-70
2021/08/19 06:26:16;;;;;;;;;;;17.20;92.80;;;;;;5048290;28;19956;-70
2021/08/19 06:28:42;;;;;;;;;;;17.30;92.70;;;;;;5041093;28;19979;-67
2021/08/19 06:31:07;;;;;;;;;;;17.40;92.60;;;;;;5041215;28;19949;-67
2021/08/19 06:33:33;;;;;;;;;;;17.50;92.60;;;;;;5040928;28;20021;-67
2021/08/19 06:35:58;;;;;;;;;;;17.60;92.50;;;;;;5040929;28;20138;-69
2021/08/19 06:38:24;;;;;;;;;;;17.60;92.30;;;;;;5041139;28;20406;-72
2021/08/19 06:40:49;;;;;;;;;;;17.70;92.20;;;;;;5041239;28;20338;-71
2021/08/19 06:43:14;;;;;;;;;;;17.80;92.20;;;;;;5041198;28;20426;-69
2021/08/19 06:45:40;;;;;;;;;;;18.00;92.00;;;;;;5041000;28;19909;-69
2021/08/19 06:48:05;;;;;;;;;;;18.10;91.60;;;;;;5039543;28;19960;-78
2021/08/19 06:50:31;;;;;;;;;;;18.20;91.50;;;;;;5040864;28;19913;-73
2021/08/19 06:52:56;;;;;;;;;;;18.30;91.30;;;;;;5040801;28;19913;-69
2021/08/19 06:55:22;;;;;;;;;;;18.30;91.30;;;;;;5041182;28;19959;-72
2021/08/19 06:57:47;;;;;;;;;;;18.30;91.10;;;;;;5040186;28;19916;-69
2021/08/19 07:00:13;;;;;;;;;;;18.30;91.20;;;;;;5056021;28;19909;-78
2021/08/19 07:02:38;;;;;;;;;;;18.30;91.10;;;;;;5040442;28;20372;-73
2021/08/19 07:05:04;;;;;;;;;;;18.30;91.00;;;;;;5041150;28;19955;-72
2021/08/19 07:07:30;;;;;;;;;;;18.30;91.00;;;;;;5040499;28;19909;-73
2021/08/19 07:09:55;;;;;;;;;;;18.30;91.00;;;;;;5040632;28;19920;-72
2021/08/19 07:12:24;;;;;;;;;;;18.30;91.00;;;;;;5040421;28;19916;-72
2021/08/19 07:14:49;;;;;;;;;;;18.30;90.90;;;;;;5040741;28;19945;-72
2021/08/19 07:17:15;;;;;;;;;;;18.30;91.00;;;;;;5040476;28;19952;-69
2021/08/19 07:19:40;;;;;;;;;;;18.30;90.90;;;;;;5055940;28;19913;-72
2021/08/19 07:22:06;;;;;;;;;;;18.20;90.70;;;;;;5038579;28;19917;-78
2021/08/19 07:24:31;;;;;;;;;;;18.20;90.80;;;;;;5040269;28;19959;-69
2021/08/19 07:26:57;;;;;;;;;;;18.20;90.80;;;;;;5039090;28;19917;-72
2021/08/19 07:29:22;;;;;;;;;;;18.10;90.90;;;;;;5040272;28;19909;-69
2021/08/19 07:31:48;;;;;;;;;;;18.10;91.00;;;;;;5038937;28;19956;-71
2021/08/19 07:34:13;;;;;;;;;;;18.00;91.00;;;;;;5040356;28;19972;-72
2021/08/19 07:36:38;;;;;;;;;;;18.00;91.00;;;;;;5040201;28;19909;-78
2021/08/19 07:39:04;;;;;;;;;;;18.00;91.10;;;;;;5046989;28;19913;-73
2021/08/19 07:41:33;;;;;;;;;;;18.00;91.10;;;;;;5040262;28;19909;-77
2021/08/19 07:43:59;;;;;;;;;;;18.00;91.10;;;;;;5040025;28;19909;-78
2021/08/19 07:46:24;;;;;;;;;;;18.10;91.10;;;;;;5047048;28;19909;-72
2021/08/19 07:48:50;;;;;;;;;;;18.10;91.10;;;;;;5040164;28;19915;-78
2021/08/19 07:51:16;;;;;;;;;;;18.20;91.10;;;;;;5040159;28;19909;-78
2021/08/19 07:53:44;;;;;;;;;;;18.30;91.00;;;;;;5039991;28;19909;-78
2021/08/19 07:56:10;;;;;;;;;;;18.30;90.90;;;;;;5040096;28;20421;-73
2021/08/19 07:58:35;;;;;;;;;;;18.30;90.80;;;;;;5039875;28;19916;-72
2021/08/19 08:01:01;;;;;;;;;;;18.40;90.80;;;;;;5038659;28;20444;-71
2021/08/19 08:03:26;;;;;;;;;;;18.40;90.80;;;;;;5038590;28;20306;-78
2021/08/19 08:05:52;;;;;;;;;;;18.40;90.60;;;;;;5039944;28;19932;-78
2021/08/19 08:08:18;;;;;;;;;;;18.30;90.50;;;;;;5040097;28;19913;-69
2021/08/19 08:10:43;;;;;;;;;;;18.20;90.70;;;;;;5041349;28;19920;-72
2021/08/19 08:13:10;;;;;;;;;;;18.20;90.80;;;;;;5043817;28;19913;-69
2021/08/19 08:15:36;;;;;;;;;;;18.30;90.90;;;;;;5043835;28;19919;-69
2021/08/19 08:18:02;;;;;;;;;;;18.30;90.90;;;;;;5042447;28;20283;-72
2021/08/19 08:20:27;;;;;;;;;;;18.30;90.80;;;;;;5043596;28;19956;-69
2021/08/19 08:22:53;;;;;;;;;;;18.30;90.70;;;;;;5042171;28;19959;-78
2021/08/19 08:25:19;;;;;;;;;;;18.40;90.70;;;;;;5043650;28;19913;-74
2021/08/19 08:27:53;;;;;;;;;;;18.40;90.60;;;;;;5041990;28;19962;-78
2021/08/19 08:30:19;;;;;;;;;;;18.40;90.60;;;;;;5043827;28;19913;-69
2021/08/19 08:32:44;;;;;;;;;;;18.40;90.60;;;;;;5043185;28;20055;-69
2021/08/19 08:35:10;;;;;;;;;;;18.40;90.50;;;;;;5042149;28;19966;-78
2021/08/19 08:37:35;;;;;;;;;;;18.30;90.50;;;;;;5043148;28;19936;-78
2021/08/19 08:40:01;;;;;;;;;;;18.30;90.50;;;;;;5043207;28;20375;-74
2021/08/19 08:42:27;;;;;;;;;;;18.30;90.60;;;;;;5042995;28;20384;-78
2021/08/19 08:44:52;;;;;;;;;;;18.40;90.60;;;;;;5043226;28;19995;-78
2021/08/19 08:47:18;;;;;;;;;;;18.40;90.60;;;;;;5041932;28;19909;-78
2021/08/19 08:49:44;;;;;;;;;;;18.50;90.60;;;;;;5042976;28;20001;-78
2021/08/19 08:52:10;;;;;;;;;;;18.50;90.50;;;;;;5043266;28;19917;-72
2021/08/19 08:54:36;;;;;;;;;;;18.50;90.50;;;;;;5043128;28;20475;-71
2021/08/19 08:57:02;;;;;;;;;;;18.50;90.50;;;;;;5043238;28;20015;-71
2021/08/19 08:59:27;;;;;;;;;;;18.60;90.60;;;;;;5042855;28;19917;-71
2021/08/19 09:01:54;;;;;;;;;;;18.50;90.60;;;;;;5043329;28;20008;-72
2021/08/19 09:04:19;;;;;;;;;;;18.40;90.70;;;;;;5043164;28;19909;-71
2021/08/19 09:06:45;;;;;;;;;;;18.40;90.90;;;;;;5042630;28;19916;-79
2021/08/19 09:09:18;;;;;;;;;;;18.40;91.00;;;;;;5049775;28;19909;-69
2021/08/19 09:11:45;;;;;;;;;;;18.30;91.20;;;;;;5041264;28;19923;-70
2021/08/19 09:14:17;;;;;;;;;;;18.20;91.40;;;;;;5040983;28;19910;-73
2021/08/19 09:16:47;;;;;;;;;;;18.10;91.50;;;;;;5042634;28;20308;-72
2021/08/19 09:19:12;;;;;;;;;;;18.00;91.70;;;;;;5042461;28;19923;-73
2021/08/19 09:21:45;;;;;;;;;;;17.90;92.00;;;;;;5042118;28;19909;-73
2021/08/19 09:24:16;;;;;;;;;;;17.80;92.20;;;;;;5040933;28;19915;-73
2021/08/19 09:26:42;;;;;;;;;;;17.80;92.50;;;;;;5042488;28;20342;-73
2021/08/19 09:29:27;;;;;;;;;;;17.80;92.60;;;;;;5042356;28;19917;-73
2021/08/19 09:31:53;;;;;;;;;;;17.80;92.80;;;;;;5042189;28;20003;-71
2021/08/19 09:34:19;;;;;;;;;;;17.80;92.70;;;;;;5042582;28;19943;-69
2021/08/19 09:36:45;;;;;;;;;;;17.90;92.60;;;;;;5049309;28;19917;-72
2021/08/19 09:39:10;;;;;;;;;;;18.00;92.60;;;;;;5042069;28;19924;-72
2021/08/19 09:41:52;;;;;;;;;;;18.10;92.40;;;;;;5042545;28;19959;-73
2021/08/19 09:44:32;;;;;;;;;;;18.30;92.30;;;;;;5042048;28;19976;-72
2021/08/19 09:46:58;;;;;;;;;;;18.30;92.20;;;;;;5042000;28;20000;-72
2021/08/19 09:49:24;;;;;;;;;;;18.30;92.10;;;;;;5042269;28;20028;-72
2021/08/19 09:52:03;;;;;;;;;;;18.40;92.00;;;;;;5041990;28;19913;-72
2021/08/19 09:54:33;;;;;;;;;;;18.50;91.80;;;;;;5040361;28;20360;-71
2021/08/19 09:56:59;;;;;;;;;;;18.60;91.70;;;;;;5042026;28;19915;-71
2021/08/19 09:59:26;;;;;;;;;;;18.70;91.60;;;;;;5041872;28;19913;-71
2021/08/19 10:01:52;;;;;;;;;;;18.90;91.40;;;;;;5041697;28;19913;-72
2021/08/19 10:04:18;;;;;;;;;;;19.00;91.00;;;;;;5041556;28;20490;-74
2021/08/19 10:06:44;;;;;;;;;;;19.10;90.80;;;;;;5040068;28;19956;-74
2021/08/19 10:09:09;;;;;;;;;;;19.20;90.60;;;;;;5041674;28;20006;-72
2021/08/19 10:11:35;;;;;;;;;;;19.40;90.50;;;;;;5048156;28;19909;-70
2021/08/19 10:14:04;;;;;;;;;;;19.50;90.20;;;;;;5040498;28;19909;-68
2021/08/19 10:16:34;;;;;;;;;;;19.60;90.00;;;;;;5056544;28;19909;-68
2021/08/19 10:19:05;;;;;;;;;;;19.60;89.20;;;;;;5041624;28;19912;-68
2021/08/19 10:21:31;;;;;;;;;;;19.70;89.00;;;;;;5047785;28;19952;-72
2021/08/19 10:23:57;;;;;;;;;;;19.70;88.60;;;;;;5041591;28;19948;-69
2021/08/19 10:26:23;;;;;;;;;;;19.70;87.90;;;;;;5041223;28;19919;-77
2021/08/19 10:28:50;;;;;;;;;;;19.80;88.00;;;;;;5041471;28;19993;-73
2021/08/19 10:31:34;;;;;;;;;;;19.80;87.60;;;;;;5041311;28;20360;-68
2021/08/19 10:33:59;;;;;;;;;;;19.70;87.60;;;;;;5038922;28;19917;-71
2021/08/19 10:36:28;;;;;;;;;;;19.70;87.90;;;;;;5039755;28;19978;-71
2021/08/19 10:39:13;;;;;;;;;;;19.70;87.60;;;;;;5041327;28;19917;-71
2021/08/19 10:41:39;;;;;;;;;;;19.70;87.30;;;;;;5040600;28;20418;-71
2021/08/19 10:44:08;;;;;;;;;;;19.70;87.80;;;;;;5040981;28;19917;-71
2021/08/19 10:46:38;;;;;;;;;;;19.70;86.50;;;;;;5039384;28;19924;-71
2021/08/19 10:49:04;;;;;;;;;;;19.60;86.50;;;;;;5039662;28;20292;-68
2021/08/19 10:51:29;;;;;;;;;;;19.60;86.50;;;;;;5039169;28;19917;-72
2021/08/19 10:53:55;;;;;;;;;;;19.60;86.20;;;;;;5040623;28;19916;-72
2021/08/19 10:56:53;;;;;;;;;;;19.70;86.10;;;;;;5040777;28;19920;-78
2021/08/19 10:59:28;;;;;;;;;;;19.70;86.30;;;;;;5033567;28;19982;-77
2021/08/19 11:01:54;;;;;;;;;;;19.80;86.20;;;;;;5039443;28;19971;-73
2021/08/19 11:04:38;;;;;;;;;;;19.90;86.10;;;;;;5041211;28;20394;-71
2021/08/19 11:07:05;;;;;;;;;;;20.00;85.80;;;;;;5040498;28;20410;-71
2021/08/19 11:09:30;;;;;;;;;;;20.20;85.20;;;;;;5040394;28;19920;-70
2021/08/19 11:12:02;;;;;;;;;;;20.30;85.00;;;;;;5040329;28;19909;-71
2021/08/19 11:14:28;;;;;;;;;;;20.50;84.90;;;;;;5047315;28;19917;-71
2021/08/19 11:16:54;;;;;;;;;;;20.70;84.30;;;;;;5040388;28;19916;-68
2021/08/19 11:19:21;;;;;;;;;;;20.80;84.00;;;;;;5039269;28;19913;-68
2021/08/19 11:21:54;;;;;;;;;;;20.90;84.20;;;;;;5055738;28;20458;-68
2021/08/19 11:24:20;;;;;;;;;;;21.00;84.10;;;;;;5039104;28;19913;-71
2021/08/19 11:26:58;;;;;;;;;;;21.10;83.60;;;;;;5040801;28;20351;-71
2021/08/19 11:29:27;;;;;;;;;;;21.20;82.80;;;;;;5040226;28;19944;-71
2021/08/19 11:31:53;;;;;;;;;;;21.20;83.10;;;;;;5038670;28;19944;-71
2021/08/19 11:34:18;;;;;;;;;;;21.20;83.20;;;;;;5040354;28;20296;-71
2021/08/19 11:36:49;;;;;;;;;;;21.10;82.30;;;;;;5040144;28;20379;-69
2021/08/19 11:39:14;;;;;;;;;;;21.10;82.70;;;;;;5039241;28;19917;-72
2021/08/19 11:41:40;;;;;;;;;;;21.00;83.00;;;;;;5039817;28;19920;-72
2021/08/19 11:44:09;;;;;;;;;;;21.00;83.20;;;;;;5040345;28;19992;-72
2021/08/19 11:46:34;;;;;;;;;;;21.00;83.00;;;;;;5043160;28;19919;-72
2021/08/19 11:49:10;;;;;;;;;;;20.90;83.30;;;;;;5044475;28;19909;-72
2021/08/19 11:51:37;;;;;;;;;;;20.90;83.30;;;;;;5044302;28;20427;-73
2021/08/19 11:54:03;;;;;;;;;;;21.00;83.70;;;;;;5044477;28;19924;-78
2021/08/19 11:56:55;;;;;;;;;;;21.00;83.90;;;;;;5044610;28;19909;-78
2021/08/19 11:59:20;;;;;;;;;;;21.10;83.70;;;;;;5043592;28;20384;-78
2021/08/19 12:01:50;;;;;;;;;;;21.10;84.00;;;;;;5043828;28;19909;-73
2021/08/19 12:04:16;;;;;;;;;;;21.10;84.10;;;;;;5043954;28;19920;-73
2021/08/19 12:06:41;;;;;;;;;;;21.10;84.00;;;;;;5050752;28;19910;-73
2021/08/19 12:09:08;;;;;;;;;;;21.00;83.90;;;;;;5044113;28;19917;-73
2021/08/19 12:11:43;;;;;;;;;;;21.00;84.20;;;;;;5043736;28;20340;-69
2021/08/19 12:14:10;;;;;;;;;;;21.00;83.90;;;;;;5050917;28;19912;-69
2021/08/19 12:16:36;;;;;;;;;;;21.00;84.20;;;;;;5058862;28;19916;-78
2021/08/19 12:19:05;;;;;;;;;;;20.90;83.80;;;;;;5043660;28;19917;-79
2021/08/19 12:21:30;;;;;;;;;;;20.90;84.00;;;;;;5043600;28;19909;-74
2021/08/19 12:24:09;;;;;;;;;;;20.80;84.30;;;;;;5043534;28;19909;-73
2021/08/19 12:26:35;;;;;;;;;;;20.80;84.60;;;;;;5043825;28;19912;-73
2021/08/19 12:29:00;;;;;;;;;;;20.80;84.90;;;;;;5043515;28;20287;-78
2021/08/19 12:31:44;;;;;;;;;;;20.80;85.00;;;;;;5043631;28;19913;-78
2021/08/19 12:34:10;;;;;;;;;;;20.90;85.00;;;;;;5041917;28;19917;-71
2021/08/19 12:36:35;;;;;;;;;;;20.90;85.00;;;;;;5043645;28;19919;-73
2021/08/19 12:39:14;;;;;;;;;;;20.90;84.70;;;;;;5043187;28;19966;-71
2021/08/19 12:41:40;;;;;;;;;;;20.90;84.60;;;;;;5042947;28;19952;-73
2021/08/19 12:44:07;;;;;;;;;;;20.90;84.70;;;;;;5043399;28;19955;-78
2021/08/19 12:46:43;;;;;;;;;;;20.80;85.00;;;;;;5043356;28;19908;-69
2021/08/19 12:49:25;;;;;;;;;;;20.90;85.20;;;;;;5043173;28;19916;-69
2021/08/19 12:52:09;;;;;;;;;;;20.90;85.10;;;;;;5043427;28;20018;-74
2021/08/19 12:54:34;;;;;;;;;;;21.00;85.30;;;;;;5042738;28;19909;-73
2021/08/19 12:56:59;;;;;;;;;;;21.10;85.10;;;;;;5042692;28;19920;-73
2021/08/19 12:59:25;;;;;;;;;;;21.20;85.10;;;;;;5042600;28;19921;-74
2021/08/19 13:01:50;;;;;;;;;;;21.30;84.50;;;;;;5049805;28;19958;-72
2021/08/19 13:04:16;;;;;;;;;;;21.40;84.10;;;;;;5042683;28;20352;-72
2021/08/19 13:06:41;;;;;;;;;;;21.50;84.10;;;;;;5042724;28;19963;-73
2021/08/19 13:09:07;;;;;;;;;;;21.60;84.10;;;;;;5042853;28;19924;-72
2021/08/19 13:11:32;;;;;;;;;;;21.70;84.20;;;;;;5042629;28;19939;-73
2021/08/19 13:13:57;;;;;;;;;;;21.80;83.70;;;;;;5042565;28;19921;-78
2021/08/19 13:16:23;;;;;;;;;;;21.80;83.70;;;;;;5042794;28;19909;-78
2021/08/19 13:18:48;;;;;;;;;;;21.80;83.80;;;;;;5057830;28;19983;-69
2021/08/19 13:21:14;;;;;;;;;;;21.80;83.80;;;;;;5057735;28;20000;-72
2021/08/19 13:23:39;;;;;;;;;;;21.80;84.00;;;;;;5042253;28;19940;-74
2021/08/19 13:26:05;;;;;;;;;;;21.70;84.30;;;;;;5041342;28;19913;-79
2021/08/19 13:28:31;;;;;;;;;;;21.70;84.70;;;;;;5042156;28;19909;-78
2021/08/19 13:30:56;;;;;;;;;;;21.60;84.90;;;;;;5042563;28;19913;-78
2021/08/19 13:33:21;;;;;;;;;;;21.50;85.20;;;;;;5042015;28;19917;-78
2021/08/19 13:35:47;;;;;;;;;;;21.40;85.60;;;;;;5042294;28;19920;-74
2021/08/19 13:38:12;;;;;;;;;;;21.40;85.90;;;;;;5042024;28;19913;-73
2021/08/19 13:40:38;;;;;;;;;;;21.30;86.50;;;;;;5041923;28;19909;-69
2021/08/19 13:43:03;;;;;;;;;;;21.20;86.90;;;;;;5041993;28;20372;-69
2021/08/19 13:45:30;;;;;;;;;;;21.20;87.10;;;;;;5057222;28;19992;-71
2021/08/19 13:47:56;;;;;;;;;;;21.10;87.20;;;;;;5048958;28;19917;-71
2021/08/19 13:50:21;;;;;;;;;;;21.10;87.50;;;;;;5042023;28;19935;-79
2021/08/19 13:52:47;;;;;;;;;;;21.20;87.70;;;;;;5041611;28;20372;-79
2021/08/19 13:55:12;;;;;;;;;;;21.20;87.70;;;;;;5041780;28;19913;-69
2021/08/19 13:57:38;;;;;;;;;;;21.30;87.90;;;;;;5056459;28;20295;-69
2021/08/19 14:00:04;;;;;;;;;;;21.30;87.70;;;;;;5041787;28;19916;-69
2021/08/19 14:02:29;;;;;;;;;;;21.30;87.40;;;;;;5041818;28;19909;-71
2021/08/19 14:04:54;;;;;;;;;;;21.40;87.00;;;;;;5041714;28;20055;-73
2021/08/19 14:07:20;;;;;;;;;;;21.40;86.90;;;;;;5047827;28;19931;-73
2021/08/19 14:09:45;;;;;;;;;;;21.30;86.50;;;;;;5041243;28;19963;-73
2021/08/19 14:12:11;;;;;;;;;;;21.30;86.70;;;;;;5041614;28;20349;-73
2021/08/19 14:14:36;;;;;;;;;;;21.30;87.00;;;;;;5041593;28;19913;-78